createdAt,value
2019-04-25T00:03:01.186Z,6.43
2019-04-25T00:08:05.301Z,7.40
2019-04-25T00:13:09.285Z,5.87
2019-04-25T00:18:13.618Z,7.30
2019-04-25T00:23:18.759Z,5.50
2019-04-25T00:28:22.420Z,5.50
2019-04-25T00:33:26.150Z,6.20
2019-04-25T00:38:29.910Z,7.37
2019-04-25T00:43:34.003Z,5.80
2019-04-25T00:48:37.607Z,5.00
2019-04-25T00:53:42.651Z,8.77
2019-04-25T00:58:52.492Z,6.53
2019-04-25T01:03:56.550Z,7.27
2019-04-25T01:09:01.542Z,9.40
2019-04-25T01:14:05.794Z,5.60
2019-04-25T01:19:09.828Z,6.03
2019-04-25T01:24:14.101Z,4.77
2019-04-25T01:29:18.970Z,7.77
2019-04-25T01:34:25.780Z,8.83
2019-04-25T01:39:40.514Z,7.30
2019-04-25T01:44:51.814Z,8.23
2019-04-25T01:49:56.518Z,6.60
2019-04-25T01:55:00.333Z,6.53
2019-04-25T02:00:06.315Z,6.40
2019-04-25T02:05:11.115Z,5.10
2019-04-25T02:10:15.332Z,6.77
2019-04-25T02:15:20.724Z,6.83
2019-04-25T02:20:24.471Z,6.20
2019-04-25T02:25:28.189Z,6.33
2019-04-25T02:30:31.859Z,5.23
2019-04-25T02:35:35.511Z,5.90
2019-04-25T02:40:39.153Z,7.70
2019-04-25T02:45:44.867Z,5.97
2019-04-25T02:51:08.647Z,6.70
2019-04-25T02:56:27.422Z,8.50
2019-04-25T03:01:22.638Z,7.20
2019-04-25T03:06:24.995Z,7.30
2019-04-25T03:11:28.859Z,7.27
2019-04-25T03:16:34.614Z,6.57
2019-04-25T03:21:39.585Z,6.63
2019-04-25T03:26:44.324Z,6.73
2019-04-25T03:31:48.172Z,7.70
2019-04-25T03:36:53.633Z,7.73
2019-04-25T03:41:57.120Z,6.43
2019-04-25T03:47:00.986Z,6.80
2019-04-25T03:52:06.425Z,7.77
2019-04-25T03:57:10.387Z,8.03
2019-04-25T04:02:15.200Z,9.17
2019-04-25T04:07:18.919Z,8.13
2019-04-25T04:12:24.157Z,7.43
2019-04-25T04:17:29.533Z,8.03
2019-04-25T04:22:47.399Z,7.70
2019-04-25T04:27:50.995Z,9.30
2019-04-25T04:32:54.587Z,10.83
2019-04-25T04:37:58.451Z,10.20
2019-04-25T04:43:02.042Z,17.77
2019-04-25T04:48:05.724Z,21.40
2019-04-25T04:53:09.659Z,42.90
2019-04-25T04:58:15.015Z,35.17
2019-04-25T05:03:34.311Z,32.07
2019-04-25T05:08:43.557Z,23.00
2019-04-25T05:13:47.126Z,14.70
2019-04-25T05:18:50.736Z,17.83
2019-04-25T05:23:54.617Z,11.77
2019-04-25T05:28:58.208Z,26.53
2019-04-25T05:34:03.549Z,13.50
2019-04-25T05:39:09.764Z,12.97
2019-04-25T05:44:14.938Z,9.50
2019-04-25T05:49:19.298Z,26.10
2019-04-25T05:54:24.784Z,10.27
2019-04-25T05:59:28.740Z,8.03
2019-04-25T06:04:33.973Z,9.13
2019-04-25T06:09:39.353Z,8.80
2019-04-25T06:14:43.458Z,11.47
2019-04-25T06:19:48.669Z,8.30
2019-04-25T06:24:54.330Z,10.53
2019-04-25T06:30:00.965Z,11.30
2019-04-25T06:35:06.162Z,7.77
2019-04-25T06:40:10.404Z,7.20
2019-04-25T06:45:25.546Z,6.97
2019-04-25T06:50:30.270Z,8.97
2019-04-25T06:55:34.343Z,7.43
2019-04-25T07:00:42.607Z,10.77
2019-04-25T07:05:43.987Z,5.70
2019-04-25T07:10:47.817Z,6.03
2019-04-25T07:15:51.396Z,7.47
2019-04-25T07:20:55.059Z,7.50
2019-04-25T07:26:00.736Z,9.77
2019-04-25T07:31:06.093Z,10.03
2019-04-25T07:36:10.252Z,10.40
2019-04-25T07:41:15.905Z,8.03
2019-04-25T07:46:19.816Z,8.77
2019-04-25T07:51:23.734Z,9.70
2019-04-25T07:56:27.976Z,10.50
2019-04-25T08:01:33.758Z,12.23
2019-04-25T08:06:37.626Z,7.70
2019-04-25T08:11:41.570Z,6.73
2019-04-25T08:16:54.355Z,5.93
2019-04-25T08:21:58.879Z,6.33
2019-04-25T08:27:03.323Z,7.63
2019-04-25T08:32:07.637Z,6.60
2019-04-25T08:37:18.196Z,7.17
2019-04-25T08:42:16.459Z,6.43
2019-04-25T08:47:20.047Z,6.70
2019-04-25T08:52:24.380Z,6.17
2019-04-25T08:57:46.094Z,7.10
2019-04-25T09:02:54.488Z,7.57
2019-04-25T09:07:57.180Z,6.10
2019-04-25T09:13:01.266Z,9.83
2019-04-25T09:18:05.345Z,7.90
2019-04-25T09:23:09.135Z,7.53
2019-04-25T09:28:14.251Z,11.37
2019-04-25T09:33:17.969Z,7.53
2019-04-25T09:38:24.370Z,8.57
2019-04-25T09:43:27.408Z,7.77
2019-04-25T09:48:42.373Z,8.13
2019-04-25T09:53:50.984Z,5.57
2019-04-25T09:58:53.996Z,4.43
2019-04-25T10:03:57.620Z,5.90
2019-04-25T10:09:01.651Z,5.67
2019-04-25T10:14:27.696Z,5.60
2019-04-25T10:19:31.420Z,4.83
2019-04-25T10:24:35.318Z,4.97
2019-04-25T10:29:46.882Z,7.07
2019-04-25T10:34:45.883Z,8.87
2019-04-25T10:39:49.963Z,5.67
2019-04-25T10:44:56.138Z,8.57
2019-04-25T10:49:59.385Z,9.07
2019-04-25T10:55:04.174Z,8.43
2019-04-25T11:00:27.256Z,6.87
2019-04-25T11:05:31.135Z,8.57
2019-04-25T11:10:39.712Z,9.47
2019-04-25T11:15:44.939Z,8.90
2019-04-25T11:20:48.849Z,7.43
2019-04-25T11:25:54.199Z,7.70
2019-04-25T11:30:58.819Z,10.57
2019-04-25T11:36:04.210Z,8.43
2019-04-25T11:41:14.121Z,6.37
2019-04-25T11:46:21.304Z,6.53
2019-04-25T11:51:25.083Z,7.37
2019-04-25T11:56:28.857Z,8.07
2019-04-25T12:01:33.603Z,8.70
2019-04-25T12:06:37.793Z,7.87
2019-04-25T12:11:41.386Z,7.30
2019-04-25T12:16:48.488Z,8.50
2019-04-25T12:21:53.569Z,7.27
2019-04-25T12:26:56.657Z,9.30
2019-04-25T12:32:00.322Z,9.70
2019-04-25T12:37:04.184Z,8.70
2019-04-25T12:42:07.931Z,8.57
2019-04-25T12:47:15.805Z,6.87
2019-04-25T12:52:19.823Z,8.90
2019-04-25T12:57:24.258Z,8.63
2019-04-25T13:02:27.928Z,7.77
2019-04-25T13:07:31.513Z,9.97
2019-04-25T13:12:35.177Z,7.27
2019-04-25T13:17:39.149Z,8.03
2019-04-25T13:22:43.282Z,10.37
2019-04-25T13:27:58.469Z,7.30
2019-04-25T13:33:04.419Z,7.73
2019-04-25T13:38:08.632Z,7.70
2019-04-25T13:43:12.553Z,9.43
2019-04-25T13:48:16.541Z,10.77
2019-04-25T13:53:20.856Z,6.13
2019-04-25T13:58:25.517Z,7.53
2019-04-25T14:03:30.178Z,8.60
2019-04-25T14:08:33.771Z,17.90
2019-04-25T14:13:37.499Z,9.23
2019-04-25T14:18:48.994Z,10.03
2019-04-25T14:23:54.074Z,9.40
2019-04-25T14:28:57.812Z,9.53
2019-04-25T14:34:03.324Z,13.73
2019-04-25T14:39:08.221Z,10.40
2019-04-25T14:44:11.813Z,9.40
2019-04-25T14:49:15.745Z,10.13
2019-04-25T14:54:23.697Z,12.03
2019-04-25T14:59:27.365Z,11.27
2019-04-25T15:04:31.026Z,10.70
2019-04-25T15:09:35.379Z,10.83
2019-04-25T15:14:39.165Z,10.50
2019-04-25T15:19:42.826Z,11.10
2019-04-25T15:24:46.711Z,18.57
2019-04-25T15:29:50.306Z,12.63
2019-04-25T15:34:58.274Z,11.57
2019-04-25T15:40:03.655Z,11.37
2019-04-25T15:45:15.209Z,11.93
2019-04-25T15:50:19.314Z,10.20
2019-04-25T15:55:22.938Z,14.37
2019-04-25T16:00:36.671Z,12.30
2019-04-25T16:05:40.331Z,14.93
2019-04-25T16:10:43.941Z,10.17
2019-04-25T16:15:47.515Z,8.77
2019-04-25T16:20:51.257Z,8.90
2019-04-25T16:25:54.929Z,7.77
2019-04-25T16:30:58.601Z,8.57
2019-04-25T16:36:02.251Z,7.33
2019-04-25T16:41:06.341Z,8.40
2019-04-25T16:46:10.412Z,10.13
2019-04-25T16:51:14.762Z,8.57
2019-04-25T16:56:18.642Z,9.10
2019-04-25T17:01:22.365Z,9.23
2019-04-25T17:06:26.030Z,5.70
2019-04-25T17:11:30.702Z,9.50
2019-04-25T17:16:48.887Z,6.93
2019-04-25T17:21:52.916Z,7.50
2019-04-25T17:26:56.509Z,11.23
2019-04-25T17:32:16.953Z,13.30
2019-04-25T17:37:28.382Z,9.27
2019-04-25T17:42:32.489Z,9.90
2019-04-25T17:47:37.199Z,9.97
2019-04-25T17:52:41.158Z,8.77
2019-04-25T17:57:44.974Z,9.13
2019-04-25T18:02:58.312Z,9.37
2019-04-25T18:07:54.291Z,7.03
2019-04-25T18:12:57.890Z,8.00
2019-04-25T18:18:03.511Z,8.33
2019-04-25T18:23:08.817Z,5.47
2019-04-25T18:28:22.656Z,8.73
2019-04-25T18:33:30.507Z,5.80
2019-04-25T18:38:53.272Z,7.27
2019-04-25T18:44:01.610Z,6.07
2019-04-25T18:49:05.828Z,4.50
2019-04-25T18:54:17.511Z,7.93
2019-04-25T18:59:41.604Z,9.73
2019-04-25T19:04:52.095Z,6.67
2019-04-25T19:09:57.636Z,4.87
2019-04-25T19:15:03.072Z,5.67
2019-04-25T19:20:09.079Z,5.27
2019-04-25T19:30:27.371Z,6.47
2019-04-25T19:35:32.815Z,5.77
2019-04-25T19:40:39.606Z,5.77
2019-04-25T19:45:49.405Z,5.77
2019-04-25T19:50:55.097Z,6.63
2019-04-25T19:56:00.646Z,4.63
2019-04-25T20:01:04.549Z,5.50
2019-04-25T20:06:12.801Z,4.43
2019-04-25T20:11:24.368Z,4.57
2019-04-25T20:16:29.668Z,5.70
2019-04-25T20:21:33.729Z,3.93
2019-04-25T20:26:37.549Z,5.63
2019-04-25T20:31:41.568Z,6.20
2019-04-25T20:36:45.727Z,6.50
2019-04-25T20:41:49.757Z,5.07
2019-04-25T20:46:53.573Z,5.80
2019-04-25T20:51:57.613Z,6.43
2019-04-25T20:57:01.278Z,5.70
2019-04-25T21:02:06.400Z,4.80
2019-04-25T21:07:10.223Z,5.93
2019-04-25T21:12:14.170Z,6.70
2019-04-25T21:17:25.443Z,6.97
2019-04-25T21:22:29.035Z,5.67
2019-04-25T21:27:33.054Z,5.63
2019-04-25T21:32:41.277Z,5.43
2019-04-25T21:37:45.405Z,5.10
2019-04-25T21:42:53.900Z,5.27
2019-04-25T21:47:58.753Z,5.67
2019-04-25T21:53:03.243Z,5.90
2019-04-25T21:58:07.094Z,5.70
2019-04-25T22:03:11.300Z,6.07
2019-04-25T22:08:15.136Z,5.53
2019-04-25T22:13:18.735Z,5.10
2019-04-25T22:18:22.664Z,4.20
2019-04-25T22:23:26.422Z,6.83
2019-04-25T22:28:30.595Z,5.40
2019-04-25T22:33:51.317Z,5.60
2019-04-25T22:39:11.110Z,5.30
2019-04-25T22:44:16.985Z,7.40
2019-04-25T22:49:20.889Z,7.00
2019-04-25T22:54:25.560Z,5.43
2019-04-25T22:59:29.153Z,5.87
2019-04-25T23:04:46.569Z,6.37
2019-04-25T23:09:51.653Z,6.80
2019-04-25T23:14:55.608Z,5.73
2019-04-25T23:19:59.200Z,6.90
2019-04-25T23:25:05.065Z,6.87
2019-04-25T23:30:12.246Z,6.70
2019-04-25T23:35:27.901Z,6.37
2019-04-25T23:40:21.944Z,5.40
2019-04-25T23:45:25.521Z,6.17
2019-04-25T23:50:29.113Z,5.70
2019-04-25T23:55:32.713Z,4.83
